DAAGGABS

Guest
Details From DAAG - Alger Houari Boumediene
To GABS - Bamako Senou
Flight Number -
Tags Generated
Created
Modified
Stats Distance 1,571 nm / 2,909 km
Max Altitude 0 ft / 0 m
Waypoints 4
Social Downloads 2
Likes 0
Share VATSIM

Download

Looking for another format? Having issues loading an existing format? Contact us
Advertisement - Login to hide

Notes

Generated

Route

DAAG BREZI BKO GABS

ID Type Via Altitude Latitude Longitude Leg Dist Tot Dist Heading (true) Name
O DAAG APT - 0 ft / 0 m 36.69213˚ 3.17083˚ - 0 nm - -
BREZI FIX - 0 ft / 0 m 33.00028˚ 0.99806˚ 246 nm 246 nm 206° / 205° -
BKO VOR - 0 ft / 0 m 12.54611˚ -7.93047˚ 1322 nm 1568 nm 204° / 200° BAMAKO/SENOU VOR-DME
O GABS APT - 0 ft / 0 m 12.52683˚ -7.96035˚ 2 nm 1570 nm 237° / 237° -

Altitude Profile

Advertisement - Login to hide

Weather


0- 5 10 15 20 25 30 35+ Temperature / ° C

Clouds and Precipitation
Forecast for 2017-12-16 00:00 UTC. Updated an hour ago

Ground ~20,000 ft ~40,000 ft Winds

DAAG

Details ICAO DAAG (ALG)
Name Alger Houari Boumediene
Region Algeria
Timezone Africa/Algiers (UTC+1.0)
Stats Elevation 82 ft / 25 m (AMSL)
Location 36.697521° 3.213079°
Runways 2
Magnetic Variation 1.058° E

METAR

DAAG 152200Z VRB02KT 9999 -RA FEW023TCU SCT040 14/11 Q1011

Decode

TAF

TAF DAAG 151700Z 1518/1618 24012KT 9999 FEW023TCU SCT040 BKN100 PROB40 TEMPO 1518/1524 5000 -RA FEW026CB PROB40 TEMPO 1521/1608 24015G25KT 3000 TSRA SCT020TCU FEW023CB

Decode

Departure Runways

ID Width Length Bearing (true) Bearing (mag) Surface Threshold Offset Overrun Length
05 197 ft / 60 m 11,459 ft / 3,493 m 52.87° 51.81° Asphalt 0 ft / 0 m 0 ft / 0 m
09 148 ft / 45 m 11,442 ft / 3,487 m 91.75° 90.69° Asphalt 0 ft / 0 m 1,017 ft / 310 m
23 197 ft / 60 m 11,459 ft / 3,493 m 232.89° 231.83° Asphalt 0 ft / 0 m 0 ft / 0 m
27 148 ft / 45 m 11,442 ft / 3,487 m 271.78° 270.72° Asphalt 0 ft / 0 m 0 ft / 0 m

GABS

Details ICAO GABS (BKO)
Name Bamako Senou
Region Mali
Timezone Africa/Bamako (UTC+0.0)
Stats Elevation 1,246 ft / 380 m (AMSL)
Location 12.533544° -7.949943°
Runways 1
Magnetic Variation 4.160° W

METAR

GABS 152200Z 03003KT CAVOK 21/02 Q1016 NOSIG

Decode

TAF

TAF TAF GABS 151712Z 1518/1624 02010KT CAVOK PROB30 TEMPO 1606/1610 4500 HZ

Decode

Destination Runways

ID Width Length Bearing (true) Bearing (mag) Surface Threshold Offset Overrun Length
06 148 ft / 45 m 8,888 ft / 2,709 m 56.51° 60.67° Asphalt 0 ft / 0 m 327 ft / 100 m
24 148 ft / 45 m 8,888 ft / 2,709 m 236.51° 240.67° Asphalt 0 ft / 0 m 327 ft / 100 m

Approach Navaids

Runway Type Ident Frequency Range Bearing (true) Bearing (mag) Slope Elevation
06 Localiser IBS 109.50 MHz 18 nm / 33 km 56.53° 60.69° - 1,246 ft / 380 m (AMSL)
06 Glidescope IBS 109.50 MHz 10 nm / 19 km 56.51° 60.67° 3.00° 1,246 ft / 380 m (AMSL)
06 DME IBS 109.50 MHz 18 nm / 33 km - - - 1,214 ft / 370 m (AMSL)

Popular Alternatives